sensor_id;sensor_type;location;lat;lon;timestamp;P1;durP1;ratioP1;P2;durP2;ratioP2
56239;SDS011;42154;51.992;5.896;2023-08-07T00:00:22;6.35;;;1.27;;
56239;SDS011;42154;51.992;5.896;2023-08-07T00:02:48;4.97;;;1.50;;
56239;SDS011;42154;51.992;5.896;2023-08-07T00:05:14;5.30;;;2.10;;
56239;SDS011;42154;51.992;5.896;2023-08-07T00:07:41;5.15;;;1.50;;
56239;SDS011;42154;51.992;5.896;2023-08-07T00:10:07;4.15;;;1.10;;
56239;SDS011;42154;51.992;5.896;2023-08-07T00:12:33;3.05;;;1.10;;
56239;SDS011;42154;51.992;5.896;2023-08-07T00:14:59;5.05;;;1.33;;
56239;SDS011;42154;51.992;5.896;2023-08-07T00:17:25;4.28;;;1.10;;
56239;SDS011;42154;51.992;5.896;2023-08-07T00:19:51;3.72;;;1.20;;
56239;SDS011;42154;51.992;5.896;2023-08-07T00:22:17;4.15;;;1.10;;
56239;SDS011;42154;51.992;5.896;2023-08-07T00:24:43;3.10;;;0.90;;
56239;SDS011;42154;51.992;5.896;2023-08-07T00:27:09;4.15;;;1.02;;
56239;SDS011;42154;51.992;5.896;2023-08-07T00:29:38;4.15;;;1.00;;
56239;SDS011;42154;51.992;5.896;2023-08-07T00:32:04;2.42;;;0.77;;
56239;SDS011;42154;51.992;5.896;2023-08-07T00:34:30;3.22;;;0.95;;
56239;SDS011;42154;51.992;5.896;2023-08-07T00:36:56;3.78;;;1.08;;
56239;SDS011;42154;51.992;5.896;2023-08-07T00:39:22;4.13;;;1.52;;
56239;SDS011;42154;51.992;5.896;2023-08-07T00:41:50;5.13;;;1.42;;
56239;SDS011;42154;51.992;5.896;2023-08-07T00:44:16;3.58;;;1.33;;
56239;SDS011;42154;51.992;5.896;2023-08-07T00:46:42;5.50;;;1.20;;
56239;SDS011;42154;51.992;5.896;2023-08-07T00:49:08;4.03;;;1.60;;
56239;SDS011;42154;51.992;5.896;2023-08-07T00:51:37;4.55;;;1.20;;
56239;SDS011;42154;51.992;5.896;2023-08-07T00:54:03;2.70;;;1.20;;
56239;SDS011;42154;51.992;5.896;2023-08-07T00:56:30;5.45;;;1.15;;
56239;SDS011;42154;51.992;5.896;2023-08-07T00:58:57;5.93;;;1.38;;
56239;SDS011;42154;51.992;5.896;2023-08-07T01:01:24;9.27;;;1.58;;
56239;SDS011;42154;51.992;5.896;2023-08-07T01:03:50;4.13;;;1.48;;
56239;SDS011;42154;51.992;5.896;2023-08-07T01:06:16;5.75;;;1.42;;
56239;SDS011;42154;51.992;5.896;2023-08-07T01:08:42;7.75;;;1.70;;
56239;SDS011;42154;51.992;5.896;2023-08-07T01:17:06;6.30;;;1.73;;
56239;SDS011;42154;51.992;5.896;2023-08-07T01:19:39;6.38;;;1.50;;
56239;SDS011;42154;51.992;5.896;2023-08-07T01:24:38;9.00;;;1.92;;
56239;SDS011;42154;51.992;5.896;2023-08-07T01:32:08;5.07;;;1.90;;
56239;SDS011;42154;51.992;5.896;2023-08-07T01:34:38;8.45;;;1.88;;
56239;SDS011;42154;51.992;5.896;2023-08-07T01:37:06;6.15;;;1.75;;
56239;SDS011;42154;51.992;5.896;2023-08-07T01:39:34;5.53;;;1.75;;
56239;SDS011;42154;51.992;5.896;2023-08-07T01:42:02;6.85;;;2.30;;
56239;SDS011;42154;51.992;5.896;2023-08-07T01:44:30;7.43;;;2.22;;
56239;SDS011;42154;51.992;5.896;2023-08-07T01:46:56;8.02;;;2.00;;
56239;SDS011;42154;51.992;5.896;2023-08-07T01:49:21;10.63;;;2.50;;
56239;SDS011;42154;51.992;5.896;2023-08-07T01:51:47;6.90;;;1.95;;
56239;SDS011;42154;51.992;5.896;2023-08-07T01:54:13;5.60;;;1.95;;
56239;SDS011;42154;51.992;5.896;2023-08-07T01:56:39;12.07;;;2.72;;
56239;SDS011;42154;51.992;5.896;2023-08-07T01:59:04;9.82;;;2.22;;
56239;SDS011;42154;51.992;5.896;2023-08-07T02:01:30;7.47;;;2.78;;
56239;SDS011;42154;51.992;5.896;2023-08-07T02:03:56;8.38;;;2.22;;
56239;SDS011;42154;51.992;5.896;2023-08-07T02:06:22;10.27;;;2.72;;
56239;SDS011;42154;51.992;5.896;2023-08-07T02:08:47;10.00;;;2.75;;
56239;SDS011;42154;51.992;5.896;2023-08-07T02:11:14;10.77;;;3.35;;
56239;SDS011;42154;51.992;5.896;2023-08-07T02:13:40;10.30;;;2.60;;
56239;SDS011;42154;51.992;5.896;2023-08-07T02:16:06;13.73;;;2.80;;
56239;SDS011;42154;51.992;5.896;2023-08-07T02:18:31;11.27;;;3.40;;
56239;SDS011;42154;51.992;5.896;2023-08-07T02:20:57;10.32;;;3.17;;
56239;SDS011;42154;51.992;5.896;2023-08-07T02:23:24;10.63;;;2.35;;
56239;SDS011;42154;51.992;5.896;2023-08-07T02:25:51;10.15;;;2.75;;
56239;SDS011;42154;51.992;5.896;2023-08-07T02:28:18;11.07;;;3.35;;
56239;SDS011;42154;51.992;5.896;2023-08-07T02:30:45;10.10;;;2.92;;
56239;SDS011;42154;51.992;5.896;2023-08-07T02:33:14;13.38;;;3.22;;
56239;SDS011;42154;51.992;5.896;2023-08-07T02:35:39;10.55;;;2.88;;
56239;SDS011;42154;51.992;5.896;2023-08-07T02:38:05;11.90;;;2.85;;
56239;SDS011;42154;51.992;5.896;2023-08-07T02:40:31;7.78;;;2.50;;
56239;SDS011;42154;51.992;5.896;2023-08-07T02:42:57;9.20;;;3.30;;
56239;SDS011;42154;51.992;5.896;2023-08-07T02:45:22;9.82;;;2.90;;
56239;SDS011;42154;51.992;5.896;2023-08-07T02:47:48;9.70;;;2.67;;
56239;SDS011;42154;51.992;5.896;2023-08-07T02:50:14;9.27;;;2.45;;
56239;SDS011;42154;51.992;5.896;2023-08-07T02:52:39;8.27;;;2.85;;
56239;SDS011;42154;51.992;5.896;2023-08-07T02:55:05;13.00;;;2.97;;
56239;SDS011;42154;51.992;5.896;2023-08-07T02:57:31;12.55;;;3.85;;
56239;SDS011;42154;51.992;5.896;2023-08-07T02:59:57;11.80;;;3.20;;
56239;SDS011;42154;51.992;5.896;2023-08-07T03:02:23;6.68;;;2.40;;
56239;SDS011;42154;51.992;5.896;2023-08-07T03:04:49;12.80;;;4.05;;
56239;SDS011;42154;51.992;5.896;2023-08-07T03:07:14;10.82;;;3.85;;
56239;SDS011;42154;51.992;5.896;2023-08-07T03:09:40;10.10;;;3.47;;
56239;SDS011;42154;51.992;5.896;2023-08-07T03:12:06;12.45;;;3.63;;
56239;SDS011;42154;51.992;5.896;2023-08-07T03:14:32;7.93;;;3.95;;
56239;SDS011;42154;51.992;5.896;2023-08-07T03:16:58;8.55;;;3.03;;
56239;SDS011;42154;51.992;5.896;2023-08-07T03:19:23;14.43;;;3.42;;
56239;SDS011;42154;51.992;5.896;2023-08-07T03:21:49;9.98;;;2.97;;
56239;SDS011;42154;51.992;5.896;2023-08-07T03:24:15;10.90;;;2.90;;
56239;SDS011;42154;51.992;5.896;2023-08-07T03:26:41;9.60;;;3.55;;
56239;SDS011;42154;51.992;5.896;2023-08-07T03:29:06;8.45;;;2.97;;
56239;SDS011;42154;51.992;5.896;2023-08-07T03:31:32;10.02;;;2.75;;
56239;SDS011;42154;51.992;5.896;2023-08-07T03:33:58;7.85;;;2.65;;
56239;SDS011;42154;51.992;5.896;2023-08-07T03:36:24;7.90;;;2.78;;
56239;SDS011;42154;51.992;5.896;2023-08-07T03:38:50;6.38;;;2.58;;
56239;SDS011;42154;51.992;5.896;2023-08-07T03:41:16;7.85;;;2.55;;
56239;SDS011;42154;51.992;5.896;2023-08-07T03:43:42;7.25;;;2.65;;
56239;SDS011;42154;51.992;5.896;2023-08-07T03:46:08;9.00;;;3.00;;
56239;SDS011;42154;51.992;5.896;2023-08-07T03:48:34;10.13;;;2.92;;
56239;SDS011;42154;51.992;5.896;2023-08-07T03:51:05;8.20;;;2.67;;
56239;SDS011;42154;51.992;5.896;2023-08-07T03:53:43;11.10;;;2.67;;
56239;SDS011;42154;51.992;5.896;2023-08-07T03:56:09;7.30;;;2.30;;
56239;SDS011;42154;51.992;5.896;2023-08-07T03:58:35;6.78;;;2.22;;
56239;SDS011;42154;51.992;5.896;2023-08-07T04:01:01;11.48;;;2.95;;
56239;SDS011;42154;51.992;5.896;2023-08-07T04:03:27;7.35;;;2.13;;
56239;SDS011;42154;51.992;5.896;2023-08-07T04:05:53;10.27;;;3.30;;
56239;SDS011;42154;51.992;5.896;2023-08-07T04:08:21;9.80;;;2.83;;
56239;SDS011;42154;51.992;5.896;2023-08-07T04:11:03;8.63;;;2.45;;
56239;SDS011;42154;51.992;5.896;2023-08-07T04:13:32;7.15;;;2.45;;
56239;SDS011;42154;51.992;5.896;2023-08-07T04:15:58;6.70;;;2.30;;
56239;SDS011;42154;51.992;5.896;2023-08-07T04:18:25;8.63;;;2.55;;
56239;SDS011;42154;51.992;5.896;2023-08-07T04:20:55;10.80;;;2.63;;
56239;SDS011;42154;51.992;5.896;2023-08-07T04:23:21;5.47;;;1.95;;
56239;SDS011;42154;51.992;5.896;2023-08-07T04:25:48;7.55;;;2.33;;
56239;SDS011;42154;51.992;5.896;2023-08-07T04:28:15;7.53;;;2.05;;
56239;SDS011;42154;51.992;5.896;2023-08-07T04:30:41;7.28;;;2.45;;
56239;SDS011;42154;51.992;5.896;2023-08-07T04:33:08;8.23;;;2.85;;
56239;SDS011;42154;51.992;5.896;2023-08-07T04:35:33;5.22;;;1.83;;
56239;SDS011;42154;51.992;5.896;2023-08-07T04:37:59;8.23;;;2.95;;
56239;SDS011;42154;51.992;5.896;2023-08-07T04:40:27;6.03;;;2.20;;
56239;SDS011;42154;51.992;5.896;2023-08-07T04:42:52;5.35;;;2.38;;
56239;SDS011;42154;51.992;5.896;2023-08-07T04:45:18;7.57;;;2.58;;
56239;SDS011;42154;51.992;5.896;2023-08-07T04:47:44;5.45;;;2.42;;
56239;SDS011;42154;51.992;5.896;2023-08-07T04:50:11;5.80;;;2.30;;
56239;SDS011;42154;51.992;5.896;2023-08-07T04:52:36;6.85;;;2.20;;
56239;SDS011;42154;51.992;5.896;2023-08-07T04:55:02;9.30;;;2.55;;
56239;SDS011;42154;51.992;5.896;2023-08-07T04:57:29;8.10;;;2.67;;
56239;SDS011;42154;51.992;5.896;2023-08-07T04:59:55;7.93;;;2.60;;
56239;SDS011;42154;51.992;5.896;2023-08-07T05:02:20;5.53;;;2.13;;
56239;SDS011;42154;51.992;5.896;2023-08-07T05:04:46;6.78;;;2.17;;
56239;SDS011;42154;51.992;5.896;2023-08-07T05:07:12;6.32;;;2.10;;
56239;SDS011;42154;51.992;5.896;2023-08-07T05:09:37;7.05;;;2.50;;
56239;SDS011;42154;51.992;5.896;2023-08-07T05:12:04;6.13;;;2.25;;
56239;SDS011;42154;51.992;5.896;2023-08-07T05:14:31;5.18;;;2.35;;
56239;SDS011;42154;51.992;5.896;2023-08-07T05:16:57;6.78;;;2.50;;
56239;SDS011;42154;51.992;5.896;2023-08-07T05:19:24;8.70;;;2.85;;
56239;SDS011;42154;51.992;5.896;2023-08-07T05:21:50;10.63;;;3.45;;
56239;SDS011;42154;51.992;5.896;2023-08-07T05:24:19;10.50;;;2.67;;
56239;SDS011;42154;51.992;5.896;2023-08-07T05:26:45;12.02;;;3.90;;
56239;SDS011;42154;51.992;5.896;2023-08-07T05:29:12;15.82;;;3.53;;
56239;SDS011;42154;51.992;5.896;2023-08-07T05:31:38;11.55;;;2.58;;
56239;SDS011;42154;51.992;5.896;2023-08-07T05:34:03;9.77;;;3.28;;
56239;SDS011;42154;51.992;5.896;2023-08-07T05:36:29;9.65;;;2.90;;
56239;SDS011;42154;51.992;5.896;2023-08-07T05:38:58;10.27;;;4.25;;
56239;SDS011;42154;51.992;5.896;2023-08-07T05:41:23;14.73;;;2.90;;
56239;SDS011;42154;51.992;5.896;2023-08-07T05:43:49;13.80;;;3.63;;
56239;SDS011;42154;51.992;5.896;2023-08-07T05:46:15;11.57;;;3.60;;
56239;SDS011;42154;51.992;5.896;2023-08-07T05:48:40;11.70;;;3.67;;
56239;SDS011;42154;51.992;5.896;2023-08-07T05:51:06;9.50;;;3.55;;
56239;SDS011;42154;51.992;5.896;2023-08-07T05:53:32;12.63;;;3.30;;
56239;SDS011;42154;51.992;5.896;2023-08-07T05:56:00;10.60;;;3.83;;
56239;SDS011;42154;51.992;5.896;2023-08-07T05:58:25;10.05;;;3.60;;
56239;SDS011;42154;51.992;5.896;2023-08-07T06:00:52;12.48;;;4.20;;
56239;SDS011;42154;51.992;5.896;2023-08-07T06:03:17;8.68;;;2.95;;
56239;SDS011;42154;51.992;5.896;2023-08-07T06:05:43;15.23;;;3.55;;
56239;SDS011;42154;51.992;5.896;2023-08-07T06:08:09;12.85;;;3.45;;
56239;SDS011;42154;51.992;5.896;2023-08-07T06:10:35;9.25;;;3.22;;
56239;SDS011;42154;51.992;5.896;2023-08-07T06:13:01;8.25;;;2.75;;
56239;SDS011;42154;51.992;5.896;2023-08-07T06:15:28;6.25;;;2.50;;
56239;SDS011;42154;51.992;5.896;2023-08-07T06:17:55;10.15;;;3.53;;
56239;SDS011;42154;51.992;5.896;2023-08-07T06:20:20;10.02;;;3.00;;
56239;SDS011;42154;51.992;5.896;2023-08-07T06:22:46;7.20;;;2.45;;
56239;SDS011;42154;51.992;5.896;2023-08-07T06:25:12;10.57;;;3.22;;
56239;SDS011;42154;51.992;5.896;2023-08-07T06:27:38;14.25;;;3.40;;
56239;SDS011;42154;51.992;5.896;2023-08-07T06:30:04;8.93;;;3.10;;
56239;SDS011;42154;51.992;5.896;2023-08-07T06:32:31;8.77;;;3.00;;
56239;SDS011;42154;51.992;5.896;2023-08-07T06:34:57;14.07;;;3.67;;
56239;SDS011;42154;51.992;5.896;2023-08-07T06:37:23;9.20;;;3.70;;
56239;SDS011;42154;51.992;5.896;2023-08-07T06:39:48;15.55;;;4.03;;
56239;SDS011;42154;51.992;5.896;2023-08-07T06:42:14;7.82;;;2.92;;
56239;SDS011;42154;51.992;5.896;2023-08-07T06:44:43;11.95;;;4.03;;
56239;SDS011;42154;51.992;5.896;2023-08-07T06:47:08;10.98;;;4.20;;
56239;SDS011;42154;51.992;5.896;2023-08-07T06:49:34;12.93;;;3.67;;
56239;SDS011;42154;51.992;5.896;2023-08-07T06:52:00;8.00;;;3.35;;
56239;SDS011;42154;51.992;5.896;2023-08-07T06:54:26;13.52;;;4.20;;
56239;SDS011;42154;51.992;5.896;2023-08-07T06:56:51;14.45;;;3.30;;
56239;SDS011;42154;51.992;5.896;2023-08-07T06:59:17;15.05;;;4.10;;
56239;SDS011;42154;51.992;5.896;2023-08-07T07:01:43;11.80;;;3.72;;
56239;SDS011;42154;51.992;5.896;2023-08-07T07:04:09;11.02;;;3.40;;
56239;SDS011;42154;51.992;5.896;2023-08-07T07:06:37;14.35;;;3.55;;
56239;SDS011;42154;51.992;5.896;2023-08-07T07:09:03;11.65;;;3.08;;
56239;SDS011;42154;51.992;5.896;2023-08-07T07:11:29;10.60;;;3.15;;
56239;SDS011;42154;51.992;5.896;2023-08-07T07:13:55;6.70;;;2.55;;
56239;SDS011;42154;51.992;5.896;2023-08-07T07:16:21;11.32;;;3.05;;
56239;SDS011;42154;51.992;5.896;2023-08-07T07:18:47;13.13;;;2.92;;
56239;SDS011;42154;51.992;5.896;2023-08-07T07:21:14;6.43;;;2.97;;
56239;SDS011;42154;51.992;5.896;2023-08-07T07:23:40;8.02;;;2.90;;
56239;SDS011;42154;51.992;5.896;2023-08-07T07:26:05;9.30;;;2.67;;
56239;SDS011;42154;51.992;5.896;2023-08-07T07:28:31;12.05;;;2.95;;
56239;SDS011;42154;51.992;5.896;2023-08-07T07:30:57;7.90;;;2.80;;
56239;SDS011;42154;51.992;5.896;2023-08-07T07:33:23;8.30;;;2.75;;
56239;SDS011;42154;51.992;5.896;2023-08-07T07:35:48;9.30;;;3.33;;
56239;SDS011;42154;51.992;5.896;2023-08-07T07:38:14;8.30;;;2.72;;
56239;SDS011;42154;51.992;5.896;2023-08-07T07:40:43;11.10;;;3.38;;
56239;SDS011;42154;51.992;5.896;2023-08-07T07:43:08;8.13;;;3.17;;
56239;SDS011;42154;51.992;5.896;2023-08-07T07:45:34;10.23;;;2.85;;
56239;SDS011;42154;51.992;5.896;2023-08-07T07:48:03;11.10;;;3.40;;
56239;SDS011;42154;51.992;5.896;2023-08-07T07:50:31;8.32;;;2.83;;
56239;SDS011;42154;51.992;5.896;2023-08-07T07:52:57;12.38;;;3.10;;
56239;SDS011;42154;51.992;5.896;2023-08-07T07:55:24;9.50;;;3.22;;
56239;SDS011;42154;51.992;5.896;2023-08-07T07:57:50;11.55;;;3.15;;
56239;SDS011;42154;51.992;5.896;2023-08-07T08:00:16;14.48;;;3.75;;
56239;SDS011;42154;51.992;5.896;2023-08-07T08:02:43;12.35;;;3.10;;
56239;SDS011;42154;51.992;5.896;2023-08-07T08:05:09;18.55;;;3.65;;
56239;SDS011;42154;51.992;5.896;2023-08-07T08:07:38;10.52;;;3.03;;
56239;SDS011;42154;51.992;5.896;2023-08-07T08:10:07;11.82;;;3.10;;
56239;SDS011;42154;51.992;5.896;2023-08-07T08:12:34;13.80;;;3.20;;
56239;SDS011;42154;51.992;5.896;2023-08-07T08:15:00;10.05;;;3.05;;
56239;SDS011;42154;51.992;5.896;2023-08-07T08:17:26;9.43;;;3.13;;
56239;SDS011;42154;51.992;5.896;2023-08-07T08:19:52;12.02;;;3.25;;
56239;SDS011;42154;51.992;5.896;2023-08-07T08:22:18;11.48;;;3.47;;
56239;SDS011;42154;51.992;5.896;2023-08-07T08:24:44;11.93;;;3.08;;
56239;SDS011;42154;51.992;5.896;2023-08-07T08:27:09;10.60;;;3.28;;
56239;SDS011;42154;51.992;5.896;2023-08-07T08:29:35;9.27;;;3.42;;
56239;SDS011;42154;51.992;5.896;2023-08-07T08:32:01;9.30;;;2.97;;
56239;SDS011;42154;51.992;5.896;2023-08-07T08:34:27;8.95;;;3.35;;
56239;SDS011;42154;51.992;5.896;2023-08-07T08:36:52;9.90;;;2.95;;
56239;SDS011;42154;51.992;5.896;2023-08-07T08:39:18;12.43;;;3.03;;
56239;SDS011;42154;51.992;5.896;2023-08-07T08:41:46;9.30;;;3.05;;
56239;SDS011;42154;51.992;5.896;2023-08-07T08:44:12;8.63;;;3.00;;
56239;SDS011;42154;51.992;5.896;2023-08-07T08:46:39;9.27;;;3.10;;
56239;SDS011;42154;51.992;5.896;2023-08-07T08:49:07;8.27;;;2.60;;
56239;SDS011;42154;51.992;5.896;2023-08-07T08:51:36;10.27;;;2.85;;
56239;SDS011;42154;51.992;5.896;2023-08-07T08:54:02;14.32;;;3.20;;
56239;SDS011;42154;51.992;5.896;2023-08-07T08:56:31;8.98;;;2.90;;
56239;SDS011;42154;51.992;5.896;2023-08-07T08:58:58;9.82;;;2.88;;
56239;SDS011;42154;51.992;5.896;2023-08-07T09:01:23;10.55;;;3.17;;
56239;SDS011;42154;51.992;5.896;2023-08-07T09:03:50;8.48;;;2.92;;
56239;SDS011;42154;51.992;5.896;2023-08-07T09:06:18;10.85;;;3.15;;
56239;SDS011;42154;51.992;5.896;2023-08-07T09:08:44;10.32;;;3.92;;
56239;SDS011;42154;51.992;5.896;2023-08-07T09:11:11;11.45;;;3.03;;
56239;SDS011;42154;51.992;5.896;2023-08-07T09:13:39;11.77;;;3.58;;
56239;SDS011;42154;51.992;5.896;2023-08-07T09:16:07;11.60;;;3.05;;
56239;SDS011;42154;51.992;5.896;2023-08-07T09:18:34;10.50;;;3.38;;
56239;SDS011;42154;51.992;5.896;2023-08-07T09:21:00;10.88;;;2.85;;
56239;SDS011;42154;51.992;5.896;2023-08-07T09:23:26;10.55;;;3.05;;
56239;SDS011;42154;51.992;5.896;2023-08-07T09:25:59;9.57;;;3.05;;
56239;SDS011;42154;51.992;5.896;2023-08-07T09:28:25;10.13;;;2.83;;
56239;SDS011;42154;51.992;5.896;2023-08-07T09:30:52;10.50;;;3.00;;
56239;SDS011;42154;51.992;5.896;2023-08-07T09:33:23;8.70;;;3.10;;
56239;SDS011;42154;51.992;5.896;2023-08-07T09:35:50;8.07;;;2.50;;
56239;SDS011;42154;51.992;5.896;2023-08-07T09:38:16;9.60;;;2.47;;
56239;SDS011;42154;51.992;5.896;2023-08-07T09:40:42;11.30;;;2.65;;
56239;SDS011;42154;51.992;5.896;2023-08-07T09:43:07;7.22;;;2.53;;
56239;SDS011;42154;51.992;5.896;2023-08-07T09:45:33;7.47;;;2.22;;
56239;SDS011;42154;51.992;5.896;2023-08-07T09:48:03;10.15;;;2.45;;
56239;SDS011;42154;51.992;5.896;2023-08-07T09:50:29;9.93;;;3.15;;
56239;SDS011;42154;51.992;5.896;2023-08-07T09:52:56;11.02;;;2.58;;
56239;SDS011;42154;51.992;5.896;2023-08-07T09:55:25;10.85;;;3.70;;
56239;SDS011;42154;51.992;5.896;2023-08-07T09:57:52;9.00;;;2.20;;
56239;SDS011;42154;51.992;5.896;2023-08-07T10:00:18;5.72;;;2.05;;
56239;SDS011;42154;51.992;5.896;2023-08-07T10:02:47;7.75;;;2.83;;
56239;SDS011;42154;51.992;5.896;2023-08-07T10:05:15;9.13;;;2.47;;
56239;SDS011;42154;51.992;5.896;2023-08-07T10:07:41;6.43;;;2.10;;
56239;SDS011;42154;51.992;5.896;2023-08-07T10:10:08;9.00;;;2.50;;
56239;SDS011;42154;51.992;5.896;2023-08-07T10:12:35;9.85;;;2.13;;
56239;SDS011;42154;51.992;5.896;2023-08-07T10:15:02;7.53;;;2.40;;
56239;SDS011;42154;51.992;5.896;2023-08-07T10:17:28;11.50;;;2.42;;
56239;SDS011;42154;51.992;5.896;2023-08-07T10:19:55;7.47;;;1.80;;
56239;SDS011;42154;51.992;5.896;2023-08-07T10:22:25;12.77;;;2.55;;
56239;SDS011;42154;51.992;5.896;2023-08-07T10:24:53;8.48;;;2.20;;
56239;SDS011;42154;51.992;5.896;2023-08-07T10:27:22;5.03;;;2.10;;
56239;SDS011;42154;51.992;5.896;2023-08-07T10:29:48;6.95;;;1.77;;
56239;SDS011;42154;51.992;5.896;2023-08-07T10:32:18;7.68;;;2.45;;
56239;SDS011;42154;51.992;5.896;2023-08-07T10:34:52;9.63;;;2.50;;
56239;SDS011;42154;51.992;5.896;2023-08-07T10:40:02;6.30;;;2.20;;
56239;SDS011;42154;51.992;5.896;2023-08-07T10:45:18;8.20;;;2.40;;
56239;SDS011;42154;51.992;5.896;2023-08-07T10:47:56;5.90;;;1.85;;
56239;SDS011;42154;51.992;5.896;2023-08-07T10:50:30;6.18;;;2.35;;
56239;SDS011;42154;51.992;5.896;2023-08-07T10:52:59;12.82;;;2.58;;
56239;SDS011;42154;51.992;5.896;2023-08-07T10:55:47;13.88;;;2.88;;
56239;SDS011;42154;51.992;5.896;2023-08-07T11:03:45;8.48;;;2.45;;
56239;SDS011;42154;51.992;5.896;2023-08-07T11:06:15;7.22;;;2.17;;
56239;SDS011;42154;51.992;5.896;2023-08-07T11:08:42;5.18;;;2.00;;
56239;SDS011;42154;51.992;5.896;2023-08-07T11:11:08;8.02;;;1.83;;
56239;SDS011;42154;51.992;5.896;2023-08-07T11:13:34;6.25;;;1.70;;
56239;SDS011;42154;51.992;5.896;2023-08-07T11:16:00;5.15;;;1.50;;
56239;SDS011;42154;51.992;5.896;2023-08-07T11:18:27;9.05;;;1.92;;
56239;SDS011;42154;51.992;5.896;2023-08-07T11:20:57;5.75;;;2.13;;
56239;SDS011;42154;51.992;5.896;2023-08-07T11:23:26;5.97;;;2.00;;
56239;SDS011;42154;51.992;5.896;2023-08-07T11:25:52;6.22;;;1.70;;
56239;SDS011;42154;51.992;5.896;2023-08-07T11:28:19;10.32;;;1.80;;
56239;SDS011;42154;51.992;5.896;2023-08-07T11:30:49;6.70;;;1.98;;
56239;SDS011;42154;51.992;5.896;2023-08-07T11:33:21;4.28;;;1.83;;
56239;SDS011;42154;51.992;5.896;2023-08-07T11:35:48;6.07;;;2.20;;
56239;SDS011;42154;51.992;5.896;2023-08-07T11:38:28;5.57;;;2.20;;
56239;SDS011;42154;51.992;5.896;2023-08-07T11:41:05;6.90;;;1.83;;
56239;SDS011;42154;51.992;5.896;2023-08-07T11:43:32;3.92;;;1.52;;
56239;SDS011;42154;51.992;5.896;2023-08-07T11:46:00;5.10;;;1.73;;
56239;SDS011;42154;51.992;5.896;2023-08-07T11:48:28;6.03;;;1.70;;
56239;SDS011;42154;51.992;5.896;2023-08-07T11:50:54;11.05;;;2.08;;
56239;SDS011;42154;51.992;5.896;2023-08-07T11:53:21;4.65;;;1.85;;
56239;SDS011;42154;51.992;5.896;2023-08-07T11:55:55;4.43;;;2.00;;
56239;SDS011;42154;51.992;5.896;2023-08-07T11:58:23;8.07;;;2.45;;
56239;SDS011;42154;51.992;5.896;2023-08-07T12:00:50;8.40;;;1.95;;
56239;SDS011;42154;51.992;5.896;2023-08-07T12:03:26;8.30;;;1.63;;
56239;SDS011;42154;51.992;5.896;2023-08-07T12:05:57;5.28;;;1.83;;
56239;SDS011;42154;51.992;5.896;2023-08-07T12:08:24;5.40;;;1.80;;
56239;SDS011;42154;51.992;5.896;2023-08-07T12:10:55;4.60;;;1.55;;
56239;SDS011;42154;51.992;5.896;2023-08-07T12:13:24;6.30;;;2.00;;
56239;SDS011;42154;51.992;5.896;2023-08-07T12:15:55;8.70;;;2.03;;
56239;SDS011;42154;51.992;5.896;2023-08-07T12:18:22;6.68;;;1.77;;
56239;SDS011;42154;51.992;5.896;2023-08-07T12:20:49;6.47;;;3.17;;
56239;SDS011;42154;51.992;5.896;2023-08-07T12:23:16;7.20;;;1.95;;
56239;SDS011;42154;51.992;5.896;2023-08-07T12:25:44;10.68;;;2.28;;
56239;SDS011;42154;51.992;5.896;2023-08-07T12:28:10;7.15;;;1.95;;
56239;SDS011;42154;51.992;5.896;2023-08-07T12:30:36;5.05;;;1.88;;
56239;SDS011;42154;51.992;5.896;2023-08-07T12:33:02;6.57;;;2.03;;
56239;SDS011;42154;51.992;5.896;2023-08-07T12:35:35;7.40;;;2.08;;
56239;SDS011;42154;51.992;5.896;2023-08-07T12:38:01;4.95;;;2.00;;
56239;SDS011;42154;51.992;5.896;2023-08-07T12:40:28;4.50;;;1.65;;
56239;SDS011;42154;51.992;5.896;2023-08-07T12:42:55;5.13;;;1.98;;
56239;SDS011;42154;51.992;5.896;2023-08-07T12:45:21;7.68;;;2.08;;
56239;SDS011;42154;51.992;5.896;2023-08-07T12:47:47;4.00;;;1.77;;
56239;SDS011;42154;51.992;5.896;2023-08-07T12:50:13;5.30;;;1.67;;
56239;SDS011;42154;51.992;5.896;2023-08-07T12:52:38;6.15;;;1.75;;
56239;SDS011;42154;51.992;5.896;2023-08-07T12:55:04;5.97;;;1.92;;
56239;SDS011;42154;51.992;5.896;2023-08-07T12:57:31;5.28;;;2.05;;
56239;SDS011;42154;51.992;5.896;2023-08-07T12:59:57;4.60;;;1.60;;
56239;SDS011;42154;51.992;5.896;2023-08-07T13:02:22;8.02;;;2.13;;
56239;SDS011;42154;51.992;5.896;2023-08-07T13:04:48;5.22;;;1.60;;
56239;SDS011;42154;51.992;5.896;2023-08-07T13:07:14;5.38;;;1.50;;
56239;SDS011;42154;51.992;5.896;2023-08-07T13:09:40;7.32;;;1.85;;
56239;SDS011;42154;51.992;5.896;2023-08-07T13:12:06;4.95;;;1.77;;
56239;SDS011;42154;51.992;5.896;2023-08-07T13:14:32;5.20;;;1.35;;
56239;SDS011;42154;51.992;5.896;2023-08-07T13:16:57;4.82;;;1.52;;
56239;SDS011;42154;51.992;5.896;2023-08-07T13:19:23;5.35;;;1.50;;
56239;SDS011;42154;51.992;5.896;2023-08-07T13:21:49;2.97;;;1.20;;
56239;SDS011;42154;51.992;5.896;2023-08-07T13:24:14;5.32;;;1.50;;
56239;SDS011;42154;51.992;5.896;2023-08-07T13:26:40;2.70;;;1.48;;
56239;SDS011;42154;51.992;5.896;2023-08-07T13:29:12;2.85;;;1.13;;
56239;SDS011;42154;51.992;5.896;2023-08-07T13:31:39;4.72;;;1.40;;
56239;SDS011;42154;51.992;5.896;2023-08-07T13:34:11;5.20;;;1.50;;
56239;SDS011;42154;51.992;5.896;2023-08-07T13:36:37;5.10;;;1.40;;
56239;SDS011;42154;51.992;5.896;2023-08-07T13:39:04;4.10;;;1.50;;
56239;SDS011;42154;51.992;5.896;2023-08-07T13:41:30;4.32;;;1.45;;
56239;SDS011;42154;51.992;5.896;2023-08-07T13:43:56;3.65;;;1.40;;
56239;SDS011;42154;51.992;5.896;2023-08-07T13:46:22;4.68;;;1.35;;
56239;SDS011;42154;51.992;5.896;2023-08-07T13:48:48;5.78;;;1.60;;
56239;SDS011;42154;51.992;5.896;2023-08-07T13:51:14;5.97;;;1.35;;
56239;SDS011;42154;51.992;5.896;2023-08-07T13:53:41;2.83;;;0.93;;
56239;SDS011;42154;51.992;5.896;2023-08-07T13:56:07;6.07;;;1.40;;
56239;SDS011;42154;51.992;5.896;2023-08-07T13:58:36;4.88;;;1.27;;
56239;SDS011;42154;51.992;5.896;2023-08-07T14:01:02;3.17;;;1.35;;
56239;SDS011;42154;51.992;5.896;2023-08-07T14:03:29;3.05;;;1.30;;
56239;SDS011;42154;51.992;5.896;2023-08-07T14:05:55;5.75;;;1.30;;
56239;SDS011;42154;51.992;5.896;2023-08-07T14:08:21;3.92;;;1.10;;
56239;SDS011;42154;51.992;5.896;2023-08-07T14:10:47;4.20;;;1.00;;
56239;SDS011;42154;51.992;5.896;2023-08-07T14:13:12;4.30;;;1.17;;
56239;SDS011;42154;51.992;5.896;2023-08-07T14:15:38;3.10;;;1.13;;
56239;SDS011;42154;51.992;5.896;2023-08-07T14:18:05;1.70;;;0.60;;
56239;SDS011;42154;51.992;5.896;2023-08-07T14:20:31;2.38;;;1.00;;
56239;SDS011;42154;51.992;5.896;2023-08-07T14:22:56;4.38;;;1.30;;
56239;SDS011;42154;51.992;5.896;2023-08-07T14:25:22;3.22;;;1.15;;
56239;SDS011;42154;51.992;5.896;2023-08-07T14:27:48;1.33;;;0.68;;
56239;SDS011;42154;51.992;5.896;2023-08-07T14:30:14;4.07;;;0.63;;
56239;SDS011;42154;51.992;5.896;2023-08-07T14:32:40;2.08;;;0.80;;
56239;SDS011;42154;51.992;5.896;2023-08-07T14:35:08;3.20;;;0.80;;
56239;SDS011;42154;51.992;5.896;2023-08-07T14:37:34;3.25;;;0.90;;
56239;SDS011;42154;51.992;5.896;2023-08-07T14:40:01;1.98;;;0.90;;
56239;SDS011;42154;51.992;5.896;2023-08-07T14:42:27;6.07;;;1.10;;
56239;SDS011;42154;51.992;5.896;2023-08-07T14:44:53;2.03;;;1.10;;
56239;SDS011;42154;51.992;5.896;2023-08-07T14:47:19;4.53;;;1.05;;
56239;SDS011;42154;51.992;5.896;2023-08-07T14:49:44;3.58;;;0.80;;
56239;SDS011;42154;51.992;5.896;2023-08-07T14:52:10;2.38;;;0.90;;
56239;SDS011;42154;51.992;5.896;2023-08-07T14:54:36;3.25;;;1.30;;
56239;SDS011;42154;51.992;5.896;2023-08-07T14:57:02;4.13;;;1.10;;
56239;SDS011;42154;51.992;5.896;2023-08-07T14:59:27;2.75;;;1.13;;
56239;SDS011;42154;51.992;5.896;2023-08-07T15:01:53;2.75;;;0.90;;
56239;SDS011;42154;51.992;5.896;2023-08-07T15:04:19;2.78;;;1.10;;